Sweden, Pennsylvania
Current Conditions -  °F | °C
As of 3:56 PM on Tuesday 27 Jan 2015 (Local Time) from KELZ Reporting Station
Overcast Overcast  
Wind Chill:   Ceiling: 8000
Heat Index: 15°   Visibility: 10mi
Dew Point:   Wind: 14mph
Humidity: 64%   Direction: 350°N
Pressure: 29.86"   Gusts: 20mph
Location:  41.7605°N, 77.9728°W
Report Text: KELZ 272056Z AUTO 35012G17KT 10SM OVC080 M09/M15 A2986 RMK AO2 SLP154 T10941150 53013
Loading
Personal Weather Stations






























Interactive Weather Map New forecast layout! Learn more

10-Day Weather Forecast

Advertisements
Track Severe Weather on mobile